Home   Weather   USA   Lakeland   Past weeks
Flag for USA

Past Weather in Lakeland, Florida, USA — Yesterday and Last 2 Weeks

Currently: 61 °F. Passing clouds. (Weather station: Lakeland Regional, USA). See more current weather

Past Weather in Lakeland — Graph

°F

Lakeland Temperature Yesterday

Maximum temperature yesterday: 70 °F (at 3:50 pm)
Minimum temperature yesterday: 48 °F (at 1:55 am)
Average temperature yesterday: 57 °F

High & Low Weather Summary for the Past Weeks

 TemperatureHumidityPressure
High84 °F (Jan 25, 2:50 pm)100% (Jan 15, 5:50 am)30.38 "Hg (Jan 15, 5:50 am)
Low34 °F (Jan 15, 5:50 am)23% (Jan 16, 3:50 pm)29.89 "Hg (Jan 22, 2:50 pm)
Average60 °F67%30.16 "Hg
* Reported Jan 14 5:50 am — Jan 29 12:55 am, Lakeland. Weather by CustomWeather, © 2023

Note: Actual official high and low records may vary slightly from our data, if they occured in-between our weather recording intervals... More about our weather records

Lakeland Weather History for the Previous 24 Hours

Scroll right to see more
 ConditionsComfort  
Time TempWeatherWind HumidityBarometerVisibility
12:55 am
Sun, Jan 29
61 °FPassing clouds.5 mph78%30.27 "Hg10 mi
12:35 am62 °FPartly cloudy.7 mph76%30.27 "Hg10 mi
12:15 am62 °FPassing clouds.6 mph74%30.28 "Hg10 mi
11:55 pm
Sat, Jan 28
63 °FOvercast.7 mph74%30.29 "Hg10 mi
11:35 pm64 °FMostly cloudy.8 mph73%30.30 "Hg10 mi
11:15 pm64 °FOvercast.8 mph73%30.31 "Hg10 mi
10:35 pm64 °FPartly cloudy.7 mph72%30.31 "Hg10 mi
10:15 pm64 °FPassing clouds.8 mph73%30.30 "Hg10 mi
9:55 pm64 °FPartly cloudy.9 mph70%30.30 "Hg10 mi
9:35 pm65 °FOvercast.7 mph68%30.30 "Hg10 mi
9:15 pm65 °FOvercast.9 mph68%30.30 "Hg10 mi
8:55 pm65 °FMostly cloudy.9 mph68%30.30 "Hg10 mi
8:35 pm65 °FPassing clouds.8 mph68%30.30 "Hg10 mi
8:15 pm65 °FPartly cloudy.13 mph68%30.29 "Hg10 mi
7:55 pm65 °FOvercast.9 mph67%30.30 "Hg10 mi
5:50 pm66 °FOvercast.12 mph64%30.28 "Hg10 mi
3:50 pm70 °FOvercast.10 mph57%30.26 "Hg10 mi
2:50 pm68 °FOvercast.12 mph56%30.27 "Hg10 mi
1:50 pm68 °FMore clouds than sun.12 mph56%30.28 "Hg10 mi
12:50 pm64 °FCloudy.8 mph52%30.31 "Hg10 mi
11:50 am61 °FOvercast.14 mph55%30.34 "Hg10 mi
10:50 am57 °FOvercast.13 mph59%30.37 "Hg10 mi
9:50 am55 °FPartly sunny.13 mph55%30.37 "Hg10 mi
8:50 am54 °FBroken clouds.13 mph54%30.36 "Hg10 mi
8:35 am53 °FMostly cloudy.10 mph53%30.36 "Hg10 mi
8:15 am52 °FMore clouds than sun.9 mph55%30.36 "Hg10 mi
7:55 am52 °FMore clouds than sun.12 mph55%30.35 "Hg10 mi
7:15 am51 °FPartly cloudy.6 mph58%30.35 "Hg10 mi
6:55 am52 °FMostly cloudy.10 mph57%30.34 "Hg10 mi
6:35 am52 °FOvercast.8 mph60%30.34 "Hg10 mi
6:15 am51 °FMostly cloudy.9 mph60%30.34 "Hg10 mi
5:55 am52 °FMostly cloudy.7 mph60%30.34 "Hg10 mi
5:35 am52 °FMostly cloudy.9 mph60%30.33 "Hg10 mi
5:15 am52 °FOvercast.10 mph60%30.33 "Hg10 mi
4:55 am52 °FOvercast.9 mph60%30.33 "Hg10 mi
4:35 am51 °FOvercast.8 mph60%30.33 "Hg10 mi
4:15 am51 °FOvercast.8 mph59%30.33 "Hg10 mi
3:55 am51 °FOvercast.9 mph58%30.33 "Hg10 mi
3:35 am51 °FOvercast.10 mph60%30.34 "Hg10 mi
3:15 am51 °FOvercast.10 mph65%30.34 "Hg10 mi
2:35 am49 °FPassing clouds.7 mph71%30.34 "Hg10 mi
2:15 am48 °FPassing clouds.6 mph73%30.34 "Hg10 mi
Weather by CustomWeather, © 2023

See weather overview